sensor_id;sensor_type;location;lat;lon;timestamp;P1;durP1;ratioP1;P2;durP2;ratioP2
7255;SDS011;3669;49.200;9.242;2023-06-14T00:01:55;4.13;;;3.65;;
7255;SDS011;3669;49.200;9.242;2023-06-14T00:04:22;4.00;;;3.58;;
7255;SDS011;3669;49.200;9.242;2023-06-14T00:06:51;3.90;;;3.60;;
7255;SDS011;3669;49.200;9.242;2023-06-14T00:09:18;4.13;;;3.63;;
7255;SDS011;3669;49.200;9.242;2023-06-14T00:11:45;3.63;;;3.33;;
7255;SDS011;3669;49.200;9.242;2023-06-14T00:14:12;4.05;;;3.65;;
7255;SDS011;3669;49.200;9.242;2023-06-14T00:16:39;3.83;;;3.35;;
7255;SDS011;3669;49.200;9.242;2023-06-14T00:19:08;3.97;;;3.50;;
7255;SDS011;3669;49.200;9.242;2023-06-14T00:21:36;3.75;;;3.35;;
7255;SDS011;3669;49.200;9.242;2023-06-14T00:24:03;3.92;;;3.60;;
7255;SDS011;3669;49.200;9.242;2023-06-14T00:26:30;4.10;;;3.70;;
7255;SDS011;3669;49.200;9.242;2023-06-14T00:28:57;4.88;;;3.67;;
7255;SDS011;3669;49.200;9.242;2023-06-14T00:31:24;3.95;;;3.60;;
7255;SDS011;3669;49.200;9.242;2023-06-14T00:33:51;12.25;;;11.40;;
7255;SDS011;3669;49.200;9.242;2023-06-14T00:36:18;14.40;;;13.55;;
7255;SDS011;3669;49.200;9.242;2023-06-14T00:38:45;18.90;;;17.92;;
7255;SDS011;3669;49.200;9.242;2023-06-14T00:41:12;21.13;;;20.00;;
7255;SDS011;3669;49.200;9.242;2023-06-14T00:43:38;20.27;;;19.23;;
7255;SDS011;3669;49.200;9.242;2023-06-14T00:46:05;18.60;;;17.70;;
7255;SDS011;3669;49.200;9.242;2023-06-14T00:48:32;16.08;;;15.30;;
7255;SDS011;3669;49.200;9.242;2023-06-14T00:50:59;10.98;;;10.30;;
7255;SDS011;3669;49.200;9.242;2023-06-14T00:53:30;4.55;;;3.63;;
7255;SDS011;3669;49.200;9.242;2023-06-14T00:55:59;3.92;;;3.63;;
7255;SDS011;3669;49.200;9.242;2023-06-14T00:58:27;3.33;;;3.03;;
7255;SDS011;3669;49.200;9.242;2023-06-14T01:00:54;4.05;;;3.60;;
7255;SDS011;3669;49.200;9.242;2023-06-14T01:03:22;4.00;;;3.70;;
7255;SDS011;3669;49.200;9.242;2023-06-14T01:05:53;4.00;;;3.60;;
7255;SDS011;3669;49.200;9.242;2023-06-14T01:08:41;3.83;;;3.42;;
7255;SDS011;3669;49.200;9.242;2023-06-14T01:11:32;3.95;;;3.65;;
7255;SDS011;3669;49.200;9.242;2023-06-14T01:14:05;3.95;;;3.53;;
7255;SDS011;3669;49.200;9.242;2023-06-14T01:16:33;4.30;;;3.97;;
7255;SDS011;3669;49.200;9.242;2023-06-14T01:19:01;3.90;;;3.60;;
7255;SDS011;3669;49.200;9.242;2023-06-14T01:21:29;4.13;;;3.78;;
7255;SDS011;3669;49.200;9.242;2023-06-14T01:23:56;4.32;;;3.92;;
7255;SDS011;3669;49.200;9.242;2023-06-14T01:26:23;3.75;;;3.42;;
7255;SDS011;3669;49.200;9.242;2023-06-14T01:28:52;3.95;;;3.53;;
7255;SDS011;3669;49.200;9.242;2023-06-14T01:31:25;4.25;;;3.88;;
7255;SDS011;3669;49.200;9.242;2023-06-14T01:33:53;3.65;;;3.35;;
7255;SDS011;3669;49.200;9.242;2023-06-14T01:36:20;4.28;;;3.42;;
7255;SDS011;3669;49.200;9.242;2023-06-14T01:38:49;3.95;;;3.65;;
7255;SDS011;3669;49.200;9.242;2023-06-14T01:41:17;4.47;;;4.07;;
7255;SDS011;3669;49.200;9.242;2023-06-14T01:43:45;4.32;;;3.92;;
7255;SDS011;3669;49.200;9.242;2023-06-14T01:46:12;4.07;;;3.78;;
7255;SDS011;3669;49.200;9.242;2023-06-14T01:48:40;4.38;;;3.97;;
7255;SDS011;3669;49.200;9.242;2023-06-14T01:51:07;4.07;;;3.78;;
7255;SDS011;3669;49.200;9.242;2023-06-14T01:53:34;5.05;;;3.60;;
7255;SDS011;3669;49.200;9.242;2023-06-14T01:56:02;3.88;;;3.58;;
7255;SDS011;3669;49.200;9.242;2023-06-14T01:58:29;4.13;;;3.72;;
7255;SDS011;3669;49.200;9.242;2023-06-14T02:00:57;4.40;;;4.03;;
7255;SDS011;3669;49.200;9.242;2023-06-14T02:03:26;3.80;;;3.50;;
7255;SDS011;3669;49.200;9.242;2023-06-14T02:05:53;3.88;;;3.58;;
7255;SDS011;3669;49.200;9.242;2023-06-14T02:08:21;4.25;;;3.83;;
7255;SDS011;3669;49.200;9.242;2023-06-14T02:10:49;4.40;;;4.00;;
7255;SDS011;3669;49.200;9.242;2023-06-14T02:13:16;4.20;;;3.80;;
7255;SDS011;3669;49.200;9.242;2023-06-14T02:15:43;4.20;;;3.80;;
7255;SDS011;3669;49.200;9.242;2023-06-14T02:18:11;3.97;;;3.58;;
7255;SDS011;3669;49.200;9.242;2023-06-14T02:20:38;4.10;;;3.80;;
7255;SDS011;3669;49.200;9.242;2023-06-14T02:23:05;4.40;;;4.00;;
7255;SDS011;3669;49.200;9.242;2023-06-14T02:25:33;4.10;;;3.80;;
7255;SDS011;3669;49.200;9.242;2023-06-14T02:28:01;3.90;;;3.60;;
7255;SDS011;3669;49.200;9.242;2023-06-14T02:30:28;4.38;;;3.70;;
7255;SDS011;3669;49.200;9.242;2023-06-14T02:32:55;9.35;;;8.75;;
7255;SDS011;3669;49.200;9.242;2023-06-14T02:35:24;25.38;;;24.08;;
7255;SDS011;3669;49.200;9.242;2023-06-14T02:37:52;24.25;;;23.02;;
7255;SDS011;3669;49.200;9.242;2023-06-14T02:40:19;21.10;;;20.08;;
7255;SDS011;3669;49.200;9.242;2023-06-14T02:42:46;11.10;;;10.45;;
7255;SDS011;3669;49.200;9.242;2023-06-14T02:45:13;6.32;;;5.82;;
7255;SDS011;3669;49.200;9.242;2023-06-14T02:47:40;4.65;;;4.25;;
7255;SDS011;3669;49.200;9.242;2023-06-14T02:50:07;4.50;;;4.10;;
7255;SDS011;3669;49.200;9.242;2023-06-14T02:52:34;4.28;;;3.90;;
7255;SDS011;3669;49.200;9.242;2023-06-14T02:55:01;4.18;;;3.78;;
7255;SDS011;3669;49.200;9.242;2023-06-14T02:57:28;4.70;;;4.30;;
7255;SDS011;3669;49.200;9.242;2023-06-14T02:59:55;4.47;;;4.10;;
7255;SDS011;3669;49.200;9.242;2023-06-14T03:02:23;4.57;;;4.18;;
7255;SDS011;3669;49.200;9.242;2023-06-14T03:04:50;4.50;;;4.20;;
7255;SDS011;3669;49.200;9.242;2023-06-14T03:07:17;4.38;;;3.97;;
7255;SDS011;3669;49.200;9.242;2023-06-14T03:09:45;4.15;;;3.85;;
7255;SDS011;3669;49.200;9.242;2023-06-14T03:12:12;4.68;;;4.15;;
7255;SDS011;3669;49.200;9.242;2023-06-14T03:14:40;5.00;;;4.60;;
7255;SDS011;3669;49.200;9.242;2023-06-14T03:17:07;4.70;;;4.30;;
7255;SDS011;3669;49.200;9.242;2023-06-14T03:19:35;4.32;;;4.03;;
7255;SDS011;3669;49.200;9.242;2023-06-14T03:22:02;4.53;;;4.13;;
7255;SDS011;3669;49.200;9.242;2023-06-14T03:24:30;4.50;;;4.10;;
7255;SDS011;3669;49.200;9.242;2023-06-14T03:27:03;4.40;;;4.10;;
7255;SDS011;3669;49.200;9.242;2023-06-14T03:29:30;4.82;;;4.43;;
7255;SDS011;3669;49.200;9.242;2023-06-14T03:31:57;4.50;;;4.10;;
7255;SDS011;3669;49.200;9.242;2023-06-14T03:34:25;4.47;;;4.18;;
7255;SDS011;3669;49.200;9.242;2023-06-14T03:36:52;6.90;;;4.60;;
7255;SDS011;3669;49.200;9.242;2023-06-14T03:39:19;5.78;;;4.78;;
7255;SDS011;3669;49.200;9.242;2023-06-14T03:41:46;4.47;;;4.07;;
7255;SDS011;3669;49.200;9.242;2023-06-14T03:44:17;5.45;;;4.63;;
7255;SDS011;3669;49.200;9.242;2023-06-14T03:46:48;4.68;;;4.25;;
7255;SDS011;3669;49.200;9.242;2023-06-14T03:49:15;5.03;;;4.15;;
7255;SDS011;3669;49.200;9.242;2023-06-14T03:51:42;4.75;;;4.28;;
7255;SDS011;3669;49.200;9.242;2023-06-14T03:54:11;4.78;;;4.38;;
7255;SDS011;3669;49.200;9.242;2023-06-14T03:56:38;4.88;;;4.40;;
7255;SDS011;3669;49.200;9.242;2023-06-14T03:59:05;4.72;;;4.32;;
7255;SDS011;3669;49.200;9.242;2023-06-14T04:01:32;5.30;;;4.07;;
7255;SDS011;3669;49.200;9.242;2023-06-14T04:03:59;4.55;;;4.15;;
7255;SDS011;3669;49.200;9.242;2023-06-14T04:06:26;5.15;;;4.65;;
7255;SDS011;3669;49.200;9.242;2023-06-14T04:08:59;4.95;;;4.55;;
7255;SDS011;3669;49.200;9.242;2023-06-14T04:11:30;4.40;;;4.10;;
7255;SDS011;3669;49.200;9.242;2023-06-14T04:13:57;4.60;;;4.20;;
7255;SDS011;3669;49.200;9.242;2023-06-14T04:16:25;5.03;;;4.43;;
7255;SDS011;3669;49.200;9.242;2023-06-14T04:18:53;4.72;;;4.32;;
7255;SDS011;3669;49.200;9.242;2023-06-14T04:21:20;5.05;;;4.65;;
7255;SDS011;3669;49.200;9.242;2023-06-14T04:23:49;4.90;;;4.50;;
7255;SDS011;3669;49.200;9.242;2023-06-14T04:26:18;4.85;;;4.40;;
7255;SDS011;3669;49.200;9.242;2023-06-14T04:30:41;22.08;;;20.98;;
7255;SDS011;3669;49.200;9.242;2023-06-14T04:33:08;22.30;;;20.90;;
7255;SDS011;3669;49.200;9.242;2023-06-14T04:35:36;21.70;;;20.15;;
7255;SDS011;3669;49.200;9.242;2023-06-14T04:38:04;12.80;;;11.95;;
7255;SDS011;3669;49.200;9.242;2023-06-14T04:40:35;13.80;;;12.93;;
7255;SDS011;3669;49.200;9.242;2023-06-14T04:43:08;12.30;;;11.52;;
7255;SDS011;3669;49.200;9.242;2023-06-14T04:45:37;9.10;;;8.55;;
7255;SDS011;3669;49.200;9.242;2023-06-14T04:48:05;5.43;;;5.03;;
7255;SDS011;3669;49.200;9.242;2023-06-14T04:50:32;5.15;;;4.75;;
7255;SDS011;3669;49.200;9.242;2023-06-14T04:53:00;4.88;;;4.47;;
7255;SDS011;3669;49.200;9.242;2023-06-14T04:55:28;5.13;;;4.70;;
7255;SDS011;3669;49.200;9.242;2023-06-14T04:57:55;4.38;;;4.07;;
7255;SDS011;3669;49.200;9.242;2023-06-14T05:00:22;5.20;;;4.70;;
7255;SDS011;3669;49.200;9.242;2023-06-14T05:02:50;5.28;;;4.70;;
7255;SDS011;3669;49.200;9.242;2023-06-14T05:05:18;4.45;;;4.15;;
7255;SDS011;3669;49.200;9.242;2023-06-14T05:07:45;4.75;;;4.35;;
7255;SDS011;3669;49.200;9.242;2023-06-14T05:10:13;5.03;;;4.53;;
7255;SDS011;3669;49.200;9.242;2023-06-14T05:12:40;4.78;;;4.38;;
7255;SDS011;3669;49.200;9.242;2023-06-14T05:15:09;5.20;;;4.80;;
7255;SDS011;3669;49.200;9.242;2023-06-14T05:17:37;5.18;;;4.63;;
7255;SDS011;3669;49.200;9.242;2023-06-14T05:20:06;4.65;;;4.25;;
7255;SDS011;3669;49.200;9.242;2023-06-14T05:22:36;5.45;;;4.95;;
7255;SDS011;3669;49.200;9.242;2023-06-14T05:25:18;4.80;;;4.40;;
7255;SDS011;3669;49.200;9.242;2023-06-14T05:27:45;5.22;;;4.72;;
7255;SDS011;3669;49.200;9.242;2023-06-14T05:30:13;4.60;;;4.20;;
7255;SDS011;3669;49.200;9.242;2023-06-14T05:32:40;5.00;;;4.60;;
7255;SDS011;3669;49.200;9.242;2023-06-14T05:35:07;6.40;;;4.20;;
7255;SDS011;3669;49.200;9.242;2023-06-14T05:37:34;4.78;;;4.40;;
7255;SDS011;3669;49.200;9.242;2023-06-14T05:40:02;5.32;;;4.90;;
7255;SDS011;3669;49.200;9.242;2023-06-14T05:42:31;5.43;;;4.70;;
7255;SDS011;3669;49.200;9.242;2023-06-14T05:44:59;5.07;;;4.32;;
7255;SDS011;3669;49.200;9.242;2023-06-14T05:47:26;5.60;;;4.53;;
7255;SDS011;3669;49.200;9.242;2023-06-14T05:49:53;4.85;;;4.45;;
7255;SDS011;3669;49.200;9.242;2023-06-14T05:52:21;4.53;;;4.20;;
7255;SDS011;3669;49.200;9.242;2023-06-14T05:54:48;4.85;;;4.35;;
7255;SDS011;3669;49.200;9.242;2023-06-14T05:57:15;5.50;;;4.38;;
7255;SDS011;3669;49.200;9.242;2023-06-14T05:59:42;4.60;;;4.20;;
7255;SDS011;3669;49.200;9.242;2023-06-14T06:02:09;5.38;;;4.05;;
7255;SDS011;3669;49.200;9.242;2023-06-14T06:04:36;5.15;;;4.47;;
7255;SDS011;3669;49.200;9.242;2023-06-14T06:07:03;4.80;;;4.30;;
7255;SDS011;3669;49.200;9.242;2023-06-14T06:09:31;5.60;;;4.40;;
7255;SDS011;3669;49.200;9.242;2023-06-14T06:11:58;5.13;;;4.57;;
7255;SDS011;3669;49.200;9.242;2023-06-14T06:14:25;4.40;;;4.10;;
7255;SDS011;3669;49.200;9.242;2023-06-14T06:16:52;6.15;;;4.38;;
7255;SDS011;3669;49.200;9.242;2023-06-14T06:19:19;4.50;;;4.10;;
7255;SDS011;3669;49.200;9.242;2023-06-14T06:21:46;4.68;;;4.20;;
7255;SDS011;3669;49.200;9.242;2023-06-14T06:24:13;4.85;;;4.43;;
7255;SDS011;3669;49.200;9.242;2023-06-14T06:26:41;6.50;;;4.10;;
7255;SDS011;3669;49.200;9.242;2023-06-14T06:29:08;4.53;;;4.13;;
7255;SDS011;3669;49.200;9.242;2023-06-14T06:31:36;6.22;;;4.43;;
7255;SDS011;3669;49.200;9.242;2023-06-14T06:34:03;5.63;;;4.45;;
7255;SDS011;3669;49.200;9.242;2023-06-14T06:36:30;4.95;;;3.75;;
7255;SDS011;3669;49.200;9.242;2023-06-14T06:38:57;5.38;;;4.50;;
7255;SDS011;3669;49.200;9.242;2023-06-14T06:41:24;7.22;;;4.25;;
7255;SDS011;3669;49.200;9.242;2023-06-14T06:43:51;5.05;;;4.30;;
7255;SDS011;3669;49.200;9.242;2023-06-14T06:46:18;4.72;;;4.22;;
7255;SDS011;3669;49.200;9.242;2023-06-14T06:48:45;4.22;;;3.92;;
7255;SDS011;3669;49.200;9.242;2023-06-14T06:51:12;6.57;;;4.32;;
7255;SDS011;3669;49.200;9.242;2023-06-14T06:53:39;4.68;;;4.28;;
7255;SDS011;3669;49.200;9.242;2023-06-14T06:56:06;15.15;;;14.23;;
7255;SDS011;3669;49.200;9.242;2023-06-14T06:58:33;15.93;;;15.02;;
7255;SDS011;3669;49.200;9.242;2023-06-14T07:01:00;24.73;;;23.33;;
7255;SDS011;3669;49.200;9.242;2023-06-14T07:03:27;17.95;;;17.00;;
7255;SDS011;3669;49.200;9.242;2023-06-14T07:05:54;21.20;;;19.88;;
7255;SDS011;3669;49.200;9.242;2023-06-14T07:08:21;20.30;;;19.02;;
7255;SDS011;3669;49.200;9.242;2023-06-14T07:10:48;13.18;;;12.27;;
7255;SDS011;3669;49.200;9.242;2023-06-14T07:13:14;5.22;;;4.72;;
7255;SDS011;3669;49.200;9.242;2023-06-14T07:15:42;5.45;;;3.95;;
7255;SDS011;3669;49.200;9.242;2023-06-14T07:18:09;4.55;;;4.05;;
7255;SDS011;3669;49.200;9.242;2023-06-14T07:20:36;4.90;;;4.40;;
7255;SDS011;3669;49.200;9.242;2023-06-14T07:23:06;13.23;;;12.45;;
7255;SDS011;3669;49.200;9.242;2023-06-14T07:25:33;4.30;;;3.90;;
7255;SDS011;3669;49.200;9.242;2023-06-14T07:28:00;6.90;;;4.20;;
7255;SDS011;3669;49.200;9.242;2023-06-14T07:30:27;5.18;;;3.92;;
7255;SDS011;3669;49.200;9.242;2023-06-14T07:32:55;4.97;;;3.90;;
7255;SDS011;3669;49.200;9.242;2023-06-14T07:35:22;6.68;;;4.18;;
7255;SDS011;3669;49.200;9.242;2023-06-14T07:37:49;6.90;;;3.80;;
7255;SDS011;3669;49.200;9.242;2023-06-14T07:40:17;5.43;;;3.83;;
7255;SDS011;3669;49.200;9.242;2023-06-14T07:42:44;4.82;;;3.80;;
7255;SDS011;3669;49.200;9.242;2023-06-14T07:45:13;4.03;;;3.70;;
7255;SDS011;3669;49.200;9.242;2023-06-14T07:47:40;4.93;;;3.17;;
7255;SDS011;3669;49.200;9.242;2023-06-14T07:50:07;3.67;;;3.38;;
7255;SDS011;3669;49.200;9.242;2023-06-14T07:52:34;4.03;;;3.72;;
7255;SDS011;3669;49.200;9.242;2023-06-14T07:55:01;4.65;;;3.70;;
7255;SDS011;3669;49.200;9.242;2023-06-14T07:57:29;4.82;;;3.58;;
7255;SDS011;3669;49.200;9.242;2023-06-14T07:59:56;3.78;;;3.42;;
7255;SDS011;3669;49.200;9.242;2023-06-14T08:02:23;3.97;;;3.53;;
7255;SDS011;3669;49.200;9.242;2023-06-14T08:04:51;4.03;;;3.72;;
7255;SDS011;3669;49.200;9.242;2023-06-14T08:07:18;3.80;;;3.50;;
7255;SDS011;3669;49.200;9.242;2023-06-14T08:09:45;4.10;;;3.67;;
7255;SDS011;3669;49.200;9.242;2023-06-14T08:12:12;4.35;;;3.53;;
7255;SDS011;3669;49.200;9.242;2023-06-14T08:14:41;4.18;;;3.70;;
7255;SDS011;3669;49.200;9.242;2023-06-14T08:17:09;4.05;;;3.65;;
7255;SDS011;3669;49.200;9.242;2023-06-14T08:19:36;4.32;;;3.60;;
7255;SDS011;3669;49.200;9.242;2023-06-14T08:22:03;3.97;;;3.58;;
7255;SDS011;3669;49.200;9.242;2023-06-14T08:24:30;3.90;;;3.53;;
7255;SDS011;3669;49.200;9.242;2023-06-14T08:26:58;4.10;;;3.70;;
7255;SDS011;3669;49.200;9.242;2023-06-14T08:29:27;4.07;;;3.67;;
7255;SDS011;3669;49.200;9.242;2023-06-14T08:31:57;4.07;;;3.65;;
7255;SDS011;3669;49.200;9.242;2023-06-14T08:34:24;5.85;;;3.70;;
7255;SDS011;3669;49.200;9.242;2023-06-14T08:36:51;4.15;;;3.80;;
7255;SDS011;3669;49.200;9.242;2023-06-14T08:39:18;5.55;;;4.10;;
7255;SDS011;3669;49.200;9.242;2023-06-14T08:41:46;3.95;;;3.47;;
7255;SDS011;3669;49.200;9.242;2023-06-14T08:44:17;4.32;;;3.65;;
7255;SDS011;3669;49.200;9.242;2023-06-14T08:46:44;4.15;;;3.75;;
7255;SDS011;3669;49.200;9.242;2023-06-14T08:49:12;4.05;;;3.65;;
7255;SDS011;3669;49.200;9.242;2023-06-14T08:51:39;4.13;;;3.72;;
7255;SDS011;3669;49.200;9.242;2023-06-14T08:54:07;4.03;;;3.72;;
7255;SDS011;3669;49.200;9.242;2023-06-14T08:56:35;4.15;;;3.70;;
7255;SDS011;3669;49.200;9.242;2023-06-14T08:59:04;4.15;;;3.70;;
7255;SDS011;3669;49.200;9.242;2023-06-14T09:01:34;5.00;;;3.97;;
7255;SDS011;3669;49.200;9.242;2023-06-14T09:04:02;4.10;;;3.70;;
7255;SDS011;3669;49.200;9.242;2023-06-14T09:06:31;7.00;;;4.00;;
7255;SDS011;3669;49.200;9.242;2023-06-14T09:08:58;5.68;;;4.00;;
7255;SDS011;3669;49.200;9.242;2023-06-14T09:11:25;5.22;;;3.65;;
7255;SDS011;3669;49.200;9.242;2023-06-14T09:13:53;5.13;;;3.60;;
7255;SDS011;3669;49.200;9.242;2023-06-14T09:16:20;5.05;;;3.90;;
7255;SDS011;3669;49.200;9.242;2023-06-14T09:18:47;20.58;;;19.27;;
7255;SDS011;3669;49.200;9.242;2023-06-14T09:21:15;15.90;;;15.05;;
7255;SDS011;3669;49.200;9.242;2023-06-14T09:23:43;26.35;;;24.98;;
7255;SDS011;3669;49.200;9.242;2023-06-14T09:26:10;6.22;;;5.35;;
7255;SDS011;3669;49.200;9.242;2023-06-14T09:28:44;11.23;;;10.50;;
7255;SDS011;3669;49.200;9.242;2023-06-14T09:31:15;4.25;;;3.85;;
7255;SDS011;3669;49.200;9.242;2023-06-14T09:33:42;4.82;;;3.70;;
7255;SDS011;3669;49.200;9.242;2023-06-14T09:36:16;4.68;;;3.78;;
7255;SDS011;3669;49.200;9.242;2023-06-14T09:38:57;4.05;;;3.65;;
7255;SDS011;3669;49.200;9.242;2023-06-14T09:41:33;4.90;;;3.85;;
7255;SDS011;3669;49.200;9.242;2023-06-14T09:44:01;4.90;;;3.70;;
7255;SDS011;3669;49.200;9.242;2023-06-14T09:46:29;4.68;;;3.75;;
7255;SDS011;3669;49.200;9.242;2023-06-14T09:49:00;4.65;;;3.70;;
7255;SDS011;3669;49.200;9.242;2023-06-14T09:51:28;7.63;;;3.53;;
7255;SDS011;3669;49.200;9.242;2023-06-14T09:53:59;3.97;;;3.58;;
7255;SDS011;3669;49.200;9.242;2023-06-14T09:56:27;3.83;;;3.53;;
7255;SDS011;3669;49.200;9.242;2023-06-14T09:58:59;5.28;;;3.67;;
7255;SDS011;3669;49.200;9.242;2023-06-14T10:01:27;3.97;;;3.67;;
7255;SDS011;3669;49.200;9.242;2023-06-14T10:04:01;4.30;;;3.72;;
7255;SDS011;3669;49.200;9.242;2023-06-14T10:06:29;4.80;;;4.05;;
7255;SDS011;3669;49.200;9.242;2023-06-14T10:08:57;3.60;;;3.30;;
7255;SDS011;3669;49.200;9.242;2023-06-14T10:11:28;4.40;;;3.95;;
7255;SDS011;3669;49.200;9.242;2023-06-14T10:13:56;3.92;;;3.50;;
7255;SDS011;3669;49.200;9.242;2023-06-14T10:21:22;4.05;;;3.38;;
7255;SDS011;3669;49.200;9.242;2023-06-14T10:23:52;4.25;;;3.50;;
7255;SDS011;3669;49.200;9.242;2023-06-14T10:26:20;4.15;;;3.65;;
7255;SDS011;3669;49.200;9.242;2023-06-14T10:28:57;11.75;;;11.13;;
7255;SDS011;3669;49.200;9.242;2023-06-14T10:31:59;3.65;;;3.10;;
7255;SDS011;3669;49.200;9.242;2023-06-14T10:34:26;3.83;;;2.90;;
7255;SDS011;3669;49.200;9.242;2023-06-14T10:37:01;3.58;;;2.58;;
7255;SDS011;3669;49.200;9.242;2023-06-14T10:39:33;5.28;;;3.17;;
7255;SDS011;3669;49.200;9.242;2023-06-14T10:42:03;3.67;;;3.13;;
7255;SDS011;3669;49.200;9.242;2023-06-14T10:44:32;3.40;;;3.10;;
7255;SDS011;3669;49.200;9.242;2023-06-14T10:47:00;4.20;;;3.10;;
7255;SDS011;3669;49.200;9.242;2023-06-14T10:52:13;3.58;;;3.28;;
7255;SDS011;3669;49.200;9.242;2023-06-14T10:54:58;3.45;;;3.13;;
7255;SDS011;3669;49.200;9.242;2023-06-14T10:57:26;4.47;;;3.00;;
7255;SDS011;3669;49.200;9.242;2023-06-14T10:59:53;3.70;;;3.08;;
7255;SDS011;3669;49.200;9.242;2023-06-14T11:05:29;3.33;;;3.00;;
7255;SDS011;3669;49.200;9.242;2023-06-14T11:08:16;24.30;;;23.23;;
7255;SDS011;3669;49.200;9.242;2023-06-14T11:10:46;21.40;;;20.40;;
7255;SDS011;3669;49.200;9.242;2023-06-14T11:13:15;22.35;;;21.10;;
7255;SDS011;3669;49.200;9.242;2023-06-14T11:15:44;19.63;;;18.58;;
7255;SDS011;3669;49.200;9.242;2023-06-14T11:18:13;18.30;;;17.33;;
7255;SDS011;3669;49.200;9.242;2023-06-14T11:20:42;23.25;;;22.20;;
7255;SDS011;3669;49.200;9.242;2023-06-14T11:23:08;16.55;;;15.77;;
7255;SDS011;3669;49.200;9.242;2023-06-14T11:25:35;4.10;;;3.80;;
7255;SDS011;3669;49.200;9.242;2023-06-14T11:28:02;3.38;;;3.08;;
7255;SDS011;3669;49.200;9.242;2023-06-14T11:30:29;3.58;;;3.20;;
7255;SDS011;3669;49.200;9.242;2023-06-14T11:32:56;3.95;;;3.30;;
7255;SDS011;3669;49.200;9.242;2023-06-14T11:35:24;3.20;;;2.92;;
7255;SDS011;3669;49.200;9.242;2023-06-14T11:37:55;3.47;;;3.17;;
7255;SDS011;3669;49.200;9.242;2023-06-14T11:40:26;3.40;;;3.10;;
7255;SDS011;3669;49.200;9.242;2023-06-14T11:43:01;3.20;;;2.90;;
7255;SDS011;3669;49.200;9.242;2023-06-14T11:45:29;3.60;;;3.30;;
7255;SDS011;3669;49.200;9.242;2023-06-14T11:47:57;3.55;;;3.25;;
7255;SDS011;3669;49.200;9.242;2023-06-14T11:50:25;3.53;;;3.22;;
7255;SDS011;3669;49.200;9.242;2023-06-14T11:52:53;3.47;;;3.17;;
7255;SDS011;3669;49.200;9.242;2023-06-14T11:55:39;3.80;;;3.22;;
7255;SDS011;3669;49.200;9.242;2023-06-14T11:58:07;4.07;;;3.67;;
7255;SDS011;3669;49.200;9.242;2023-06-14T12:00:35;4.00;;;3.35;;
7255;SDS011;3669;49.200;9.242;2023-06-14T12:03:02;3.53;;;3.22;;
7255;SDS011;3669;49.200;9.242;2023-06-14T12:05:29;3.35;;;3.15;;
7255;SDS011;3669;49.200;9.242;2023-06-14T12:08:01;4.38;;;3.25;;
7255;SDS011;3669;49.200;9.242;2023-06-14T12:10:29;4.18;;;3.17;;
7255;SDS011;3669;49.200;9.242;2023-06-14T12:12:59;3.30;;;2.95;;
7255;SDS011;3669;49.200;9.242;2023-06-14T12:15:29;3.60;;;3.30;;
7255;SDS011;3669;49.200;9.242;2023-06-14T12:17:57;3.60;;;3.30;;
7255;SDS011;3669;49.200;9.242;2023-06-14T12:20:28;3.70;;;3.33;;
7255;SDS011;3669;49.200;9.242;2023-06-14T12:22:56;3.80;;;3.47;;
7255;SDS011;3669;49.200;9.242;2023-06-14T12:25:31;3.65;;;3.35;;
7255;SDS011;3669;49.200;9.242;2023-06-14T12:27:59;3.65;;;3.35;;
7255;SDS011;3669;49.200;9.242;2023-06-14T12:30:26;4.05;;;3.33;;
7255;SDS011;3669;49.200;9.242;2023-06-14T12:32:54;3.60;;;3.30;;
7255;SDS011;3669;49.200;9.242;2023-06-14T12:35:21;3.80;;;3.45;;
7255;SDS011;3669;49.200;9.242;2023-06-14T12:37:48;3.22;;;3.00;;
7255;SDS011;3669;49.200;9.242;2023-06-14T12:40:15;3.55;;;3.20;;
7255;SDS011;3669;49.200;9.242;2023-06-14T12:42:44;3.50;;;3.20;;
7255;SDS011;3669;49.200;9.242;2023-06-14T12:45:19;3.28;;;2.97;;
7255;SDS011;3669;49.200;9.242;2023-06-14T12:47:46;3.78;;;3.05;;
7255;SDS011;3669;49.200;9.242;2023-06-14T12:50:13;5.78;;;5.28;;
7255;SDS011;3669;49.200;9.242;2023-06-14T12:52:40;4.05;;;3.70;;
7255;SDS011;3669;49.200;9.242;2023-06-14T12:55:07;3.75;;;3.38;;
7255;SDS011;3669;49.200;9.242;2023-06-14T12:57:34;3.67;;;3.38;;
7255;SDS011;3669;49.200;9.242;2023-06-14T13:00:02;3.60;;;3.30;;
7255;SDS011;3669;49.200;9.242;2023-06-14T13:02:30;3.65;;;3.35;;
7255;SDS011;3669;49.200;9.242;2023-06-14T13:04:57;4.10;;;3.70;;
7255;SDS011;3669;49.200;9.242;2023-06-14T13:07:24;3.22;;;2.95;;
7255;SDS011;3669;49.200;9.242;2023-06-14T13:09:52;4.43;;;3.30;;
7255;SDS011;3669;49.200;9.242;2023-06-14T13:12:19;3.95;;;3.30;;
7255;SDS011;3669;49.200;9.242;2023-06-14T13:14:46;3.33;;;3.00;;
7255;SDS011;3669;49.200;9.242;2023-06-14T13:17:13;3.47;;;3.17;;
7255;SDS011;3669;49.200;9.242;2023-06-14T13:19:40;3.08;;;2.85;;
7255;SDS011;3669;49.200;9.242;2023-06-14T13:22:08;3.97;;;3.50;;
7255;SDS011;3669;49.200;9.242;2023-06-14T13:24:35;4.47;;;3.33;;
7255;SDS011;3669;49.200;9.242;2023-06-14T13:27:02;5.57;;;3.47;;
7255;SDS011;3669;49.200;9.242;2023-06-14T13:29:29;3.40;;;3.10;;
7255;SDS011;3669;49.200;9.242;2023-06-14T13:31:56;3.22;;;3.00;;
7255;SDS011;3669;49.200;9.242;2023-06-14T13:34:23;3.97;;;3.38;;
7255;SDS011;3669;49.200;9.242;2023-06-14T13:36:50;4.00;;;3.28;;
7255;SDS011;3669;49.200;9.242;2023-06-14T13:39:17;15.95;;;15.10;;
7255;SDS011;3669;49.200;9.242;2023-06-14T13:41:44;29.13;;;27.65;;
7255;SDS011;3669;49.200;9.242;2023-06-14T13:44:11;18.58;;;17.70;;
7255;SDS011;3669;49.200;9.242;2023-06-14T13:46:39;6.63;;;6.13;;
7255;SDS011;3669;49.200;9.242;2023-06-14T13:49:08;5.13;;;4.75;;
7255;SDS011;3669;49.200;9.242;2023-06-14T13:51:36;3.92;;;3.47;;
7255;SDS011;3669;49.200;9.242;2023-06-14T13:54:03;3.53;;;3.22;;
7255;SDS011;3669;49.200;9.242;2023-06-14T13:56:30;3.40;;;3.10;;
7255;SDS011;3669;49.200;9.242;2023-06-14T13:58:57;3.40;;;3.20;;
7255;SDS011;3669;49.200;9.242;2023-06-14T14:01:26;3.40;;;3.10;;
7255;SDS011;3669;49.200;9.242;2023-06-14T14:03:54;4.35;;;3.40;;
7255;SDS011;3669;49.200;9.242;2023-06-14T14:06:21;3.72;;;3.33;;
7255;SDS011;3669;49.200;9.242;2023-06-14T14:08:49;3.97;;;3.05;;
7255;SDS011;3669;49.200;9.242;2023-06-14T14:11:16;4.00;;;3.63;;
7255;SDS011;3669;49.200;9.242;2023-06-14T14:13:43;3.55;;;3.25;;
7255;SDS011;3669;49.200;9.242;2023-06-14T14:16:10;5.13;;;3.17;;
7255;SDS011;3669;49.200;9.242;2023-06-14T14:18:37;3.60;;;3.35;;
7255;SDS011;3669;49.200;9.242;2023-06-14T14:21:04;3.70;;;3.40;;
7255;SDS011;3669;49.200;9.242;2023-06-14T14:23:32;3.55;;;3.25;;
7255;SDS011;3669;49.200;9.242;2023-06-14T14:25:59;4.00;;;3.60;;
7255;SDS011;3669;49.200;9.242;2023-06-14T14:28:30;3.45;;;3.15;;
7255;SDS011;3669;49.200;9.242;2023-06-14T14:30:59;3.70;;;3.40;;
7255;SDS011;3669;49.200;9.242;2023-06-14T14:33:26;3.80;;;3.40;;
7255;SDS011;3669;49.200;9.242;2023-06-14T14:35:53;3.63;;;3.33;;
7255;SDS011;3669;49.200;9.242;2023-06-14T14:38:20;3.53;;;3.22;;
7255;SDS011;3669;49.200;9.242;2023-06-14T14:40:47;3.67;;;3.38;;
7255;SDS011;3669;49.200;9.242;2023-06-14T14:43:14;3.80;;;3.20;;
7255;SDS011;3669;49.200;9.242;2023-06-14T14:45:41;3.80;;;3.42;;
7255;SDS011;3669;49.200;9.242;2023-06-14T14:48:08;3.80;;;3.40;;
7255;SDS011;3669;49.200;9.242;2023-06-14T14:50:35;3.53;;;3.15;;
7255;SDS011;3669;49.200;9.242;2023-06-14T14:53:03;3.72;;;3.30;;
7255;SDS011;3669;49.200;9.242;2023-06-14T14:55:30;4.10;;;3.08;;
7255;SDS011;3669;49.200;9.242;2023-06-14T14:58:01;3.72;;;3.42;;
7255;SDS011;3669;49.200;9.242;2023-06-14T15:00:28;3.50;;;3.20;;
7255;SDS011;3669;49.200;9.242;2023-06-14T15:02:56;3.90;;;3.60;;
7255;SDS011;3669;49.200;9.242;2023-06-14T15:05:23;3.83;;;3.50;;
7255;SDS011;3669;49.200;9.242;2023-06-14T15:07:50;6.50;;;3.85;;
7255;SDS011;3669;49.200;9.242;2023-06-14T15:10:17;3.67;;;3.33;;
7255;SDS011;3669;49.200;9.242;2023-06-14T15:12:44;4.03;;;3.20;;
7255;SDS011;3669;49.200;9.242;2023-06-14T15:15:11;3.88;;;3.53;;
7255;SDS011;3669;49.200;9.242;2023-06-14T15:17:38;4.10;;;3.22;;
7255;SDS011;3669;49.200;9.242;2023-06-14T15:20:05;3.65;;;3.30;;
7255;SDS011;3669;49.200;9.242;2023-06-14T15:22:33;5.40;;;3.47;;
7255;SDS011;3669;49.200;9.242;2023-06-14T15:25:00;3.78;;;3.45;;
7255;SDS011;3669;49.200;9.242;2023-06-14T15:27:27;3.65;;;3.33;;
7255;SDS011;3669;49.200;9.242;2023-06-14T15:29:54;3.83;;;3.53;;
7255;SDS011;3669;49.200;9.242;2023-06-14T15:32:21;4.38;;;3.97;;